Time;durP1;ratioP1;P1;durP2;ratioP2;P2;SDS_P1;SDS_P2;PMS_P1;PMS_P2;Temp;Humidity;BMP_temperature;BMP_pressure;BME280_temperature;BME280_humidity;BME280_pressure;Samples;Min_cycle;Max_cycle;Signal;HPM_P1;HPM_P2
2022/04/15 00:02:44;;;;;;;44.00;28.65;;;;;;;29.68;68.25;100747.03;4816390;29;69804;-35
2022/04/15 00:05:37;;;;;;;46.67;28.02;;;;;;;29.68;69.13;100747.88;4827355;29;66057;-36
2022/04/15 00:08:24;;;;;;;39.38;29.58;;;;;;;29.65;71.18;100745.59;4831627;29;69600;-35
2022/04/15 00:11:08;;;;;;;32.53;28.70;;;;;;;29.57;71.93;100767.44;4810975;29;66141;-37
2022/04/15 00:13:55;;;;;;;34.13;28.33;;;;;;;29.53;72.98;100771.59;4827408;29;70069;-37
2022/04/15 00:16:57;;;;;;;31.65;28.30;;;;;;;29.35;73.00;100748.78;4799569;29;65323;-35
2022/04/15 00:19:47;;;;;;;33.25;28.42;;;;;;;29.62;73.93;100787.38;4788076;29;69612;-36
2022/04/15 00:22:31;;;;;;;32.50;28.33;;;;;;;29.67;74.02;100799.44;4829799;28;66874;-36
2022/04/15 00:25:14;;;;;;;31.25;27.85;;;;;;;29.67;73.48;100788.63;4888503;28;70355;-37
2022/04/15 00:27:59;;;;;;;29.85;26.85;;;;;;;29.74;73.26;100792.97;4902014;28;66218;-35
2022/04/15 00:30:55;;;;;;;32.35;27.10;;;;;;;29.82;73.41;100802.69;4957462;28;68890;-37
2022/04/15 00:33:42;;;;;;;32.03;26.73;;;;;;;29.78;72.46;100791.50;4959237;28;65284;-36
2022/04/15 00:36:29;;;;;;;28.63;25.42;;;;;;;29.91;73.09;100808.69;4958971;28;69764;-36
2022/04/15 00:39:15;;;;;;;31.00;27.88;;;;;;;29.86;73.49;100797.69;4956719;28;66556;-36
2022/04/15 00:42:08;;;;;;;;;;;;;;;29.66;74.73;100822.94;4895504;28;69997;-36
2022/04/15 00:45:00;;;;;;;24.60;22.23;;;;;;;30.00;69.50;100810.09;4876706;29;65714;-36
2022/04/15 00:47:54;;;;;;;22.30;20.40;;;;;;;30.17;68.33;100826.66;4914773;28;66955;-36
2022/04/15 00:50:41;;;;;;;21.75;19.70;;;;;;;30.22;68.00;100824.16;4920332;28;66351;-36
2022/04/15 00:53:29;;;;;;;20.30;18.80;;;;;;;30.30;67.28;100834.72;4927281;28;70271;-35
2022/04/15 00:56:31;;;;;;;21.52;19.63;;;;;;;30.33;67.49;100828.88;4860257;29;65909;-36
2022/04/15 00:59:20;;;;;;;21.75;19.65;;;;;;;30.40;67.02;100832.38;4861033;29;70750;-36
2022/04/15 01:02:10;;;;;;;20.00;18.27;;;;;;;30.35;66.59;100809.72;4841878;29;66244;-36
2022/04/15 01:04:57;;;;;;;20.48;18.85;;;;;;;30.46;66.11;100830.69;4849493;29;69585;-36
2022/04/15 01:07:48;;;;;;;20.48;18.77;;;;;;;30.19;65.80;100776.69;4844677;29;67142;-37
2022/04/15 01:10:36;;;;;;;20.10;18.30;;;;;;;30.55;65.72;100833.94;4803387;29;69363;-36
2022/04/15 01:13:22;;;;;;;20.58;18.73;;;;;;;30.26;65.97;100791.03;4806645;29;66228;-35
2022/04/15 01:16:09;;;;;;;20.70;18.85;;;;;;;30.60;65.89;100836.81;4807616;29;70076;-36
2022/04/15 01:18:53;;;;;;;20.70;18.80;;;;;;;30.61;65.39;100836.59;4836231;29;65966;-36
2022/04/15 01:21:41;;;;;;;20.67;19.13;;;;;;;30.62;65.37;100843.69;4880643;29;70112;-37
2022/04/15 01:24:38;;;;;;;20.00;18.05;;;;;;;30.65;65.36;100855.97;4853144;29;65832;-35
2022/04/15 01:27:32;;;;;;;21.05;19.05;;;;;;;30.68;65.24;100864.47;4877819;29;70032;-36
2022/04/15 01:30:18;;;;;;;20.88;18.88;;;;;;;30.35;64.69;100807.03;4872097;29;65452;-36
2022/04/15 01:33:05;;;;;;;18.90;17.50;;;;;;;30.62;64.67;100854.50;4881823;29;68998;-35
2022/04/15 01:35:51;;;;;;;19.02;17.48;;;;;;;30.75;64.75;100874.41;4879762;29;67175;-36
2022/04/15 01:38:39;;;;;;;20.20;18.40;;;;;;;30.69;64.39;100868.00;4881143;29;70488;-36
2022/04/15 01:41:39;;;;;;;20.35;18.65;;;;;;;30.75;64.32;100877.13;4844481;29;66337;-37
2022/04/15 01:44:26;;;;;;;18.98;17.67;;;;;;;30.80;64.64;100880.03;4840716;29;69036;-36
2022/04/15 01:47:12;;;;;;;17.77;16.58;;;;;;;30.80;64.28;100874.63;4912046;28;66278;-36
2022/04/15 01:50:00;;;;;;;18.33;16.95;;;;;;;30.82;64.38;100872.53;4975920;28;70012;-36
2022/04/15 01:52:43;;;;;;;18.52;17.02;;;;;;;30.85;63.85;100872.91;4962498;28;65513;-37
2022/04/15 01:55:30;;;;;;;17.95;16.30;;;;;;;30.82;64.04;100861.69;4975125;28;69397;-36
2022/04/15 01:58:14;;;;;;;19.30;17.65;;;;;;;30.80;63.93;100861.91;4972716;28;66817;-37
2022/04/15 02:01:01;;;;;;;18.90;17.30;;;;;;;30.88;63.48;100871.63;5004622;28;68108;-35
2022/04/15 02:03:47;;;;;;;18.45;17.23;;;;;;;30.89;63.46;100873.28;4924247;28;65307;-36
2022/04/15 02:06:43;;;;;;;19.55;18.05;;;;;;;30.84;63.67;100867.69;4921837;28;70740;-36
2022/04/15 02:09:30;;;;;;;18.63;17.25;;;;;;;30.94;63.81;100876.16;4933359;28;66013;-36
2022/04/15 02:12:18;;;;;;;19.27;17.67;;;;;;;30.96;63.18;100876.78;4861415;29;69295;-37
2022/04/15 02:15:05;;;;;;;19.08;17.55;;;;;;;30.97;63.30;100864.88;4862414;29;66037;-36
2022/04/15 02:17:54;;;;;;;18.15;16.85;;;;;;;30.81;63.31;100844.59;4861301;29;70499;-35
2022/04/15 02:20:40;;;;;;;18.75;17.08;;;;;;;31.02;63.52;100875.88;4881869;29;66116;-36
2022/04/15 02:23:27;;;;;;;17.58;16.17;;;;;;;31.02;63.11;100867.75;4879796;29;70851;-36
2022/04/15 02:26:14;;;;;;;17.50;16.30;;;;;;;31.04;62.94;100871.09;4886179;29;66196;-36
2022/04/15 02:29:01;;;;;;;16.95;15.90;;;;;;;31.04;63.30;100865.66;4858122;29;69070;-36
2022/04/15 02:31:48;;;;;;;17.25;16.05;;;;;;;31.07;62.96;100870.63;4857908;29;65587;-36
2022/04/15 02:34:34;;;;;;;18.13;16.55;;;;;;;31.09;63.08;100884.81;4850452;29;70538;-36
2022/04/15 02:37:21;;;;;;;17.65;16.35;;;;;;;31.01;62.82;100870.69;4859249;29;64901;-36
2022/04/15 02:40:07;;;;;;;17.08;15.88;;;;;;;31.13;62.66;100891.41;4840092;28;70472;-36
2022/04/15 02:42:54;;;;;;;16.95;15.63;;;;;;;31.16;62.19;100884.72;4883220;29;66653;-35
2022/04/15 02:45:38;;;;;;;16.42;15.30;;;;;;;31.20;62.15;100885.09;4880147;29;69550;-36
2022/04/15 02:48:25;;;;;;;16.90;15.68;;;;;;;31.22;62.71;100893.84;4884482;28;65916;-36
2022/04/15 02:51:20;;;;;;;15.40;14.48;;;;;;;31.24;62.55;100886.34;4922254;28;69237;-36
2022/04/15 02:54:12;;;;;;;16.75;15.60;;;;;;;31.26;61.78;100889.63;4928345;28;65673;-36
2022/04/15 02:56:59;;;;;;;14.63;13.63;;;;;;;31.15;62.19;100859.53;4980372;28;69432;-36
2022/04/15 02:59:46;;;;;;;15.38;14.20;;;;;;;31.28;62.02;100877.50;4980829;28;65287;-36
2022/04/15 03:02:33;;;;;;;15.30;14.10;;;;;;;31.32;61.71;100875.22;4979742;28;69264;-36
2022/04/15 03:05:30;;;;;;;14.75;13.85;;;;;;;31.32;61.57;100867.91;4960802;28;65495;-36
2022/04/15 03:08:16;;;;;;;14.63;13.63;;;;;;;31.32;61.45;100877.91;4961835;28;70153;-36
2022/04/15 03:11:04;;;;;;;14.82;13.70;;;;;;;31.38;61.46;100890.59;4974097;28;66308;-35
2022/04/15 03:13:51;;;;;;;14.80;13.70;;;;;;;31.39;61.07;100884.94;4997373;28;70029;-36
2022/04/15 03:16:37;;;;;;;15.52;14.48;;;;;;;31.34;61.07;100870.38;4940457;28;66702;-35
2022/04/15 03:19:33;;;;;;;15.15;14.15;;;;;;;31.45;61.04;100894.06;4902063;28;70426;-35
2022/04/15 03:22:34;;;;;;;15.82;14.63;;;;;;;31.48;60.98;100888.22;4864950;29;66121;-35
2022/04/15 03:25:22;;;;;;;16.10;14.60;;;;;;;31.43;60.76;100879.94;4812729;29;70141;-35
2022/04/15 03:28:19;;;;;;;15.52;14.35;;;;;;;31.54;60.50;100881.06;4861675;29;66082;-36
2022/04/15 03:31:05;;;;;;;15.23;14.23;;;;;;;31.55;60.54;100878.13;4863722;29;69580;-36
2022/04/15 03:33:52;;;;;;;15.05;14.02;;;;;;;31.59;60.78;100873.91;4865393;29;65512;-36
2022/04/15 03:36:48;;;;;;;16.00;14.75;;;;;;;31.60;60.42;100870.13;4826392;29;70637;-36
2022/04/15 03:39:35;;;;;;;15.05;14.05;;;;;;;31.60;60.55;100859.28;4826654;29;65219;-36
2022/04/15 03:42:10;;;;;;;15.73;14.63;;;;;;;31.64;60.24;100859.66;4821188;29;69659;-36
2022/04/15 03:44:44;;;;;;;14.57;13.63;;;;;;;31.71;60.03;100860.44;4815472;29;65327;-36
2022/04/15 03:47:16;;;;;;;14.23;13.27;;;;;;;31.74;60.31;100857.25;4811530;29;69933;-37
2022/04/15 03:49:51;;;;;;;13.65;12.95;;;;;;;31.78;59.47;100849.50;4826644;29;64843;-36
2022/04/15 03:52:26;;;;;;;14.38;13.13;;;;;;;31.79;59.59;100834.88;4810500;29;69847;-36
2022/04/15 03:55:13;;;;;;;14.65;13.65;;;;;;;31.78;59.31;100839.47;4894935;28;65351;-36
2022/04/15 03:57:45;;;;;;;14.73;13.70;;;;;;;31.80;59.46;100809.41;4939897;28;70470;-36
2022/04/15 04:00:23;;;;;;;14.93;13.73;;;;;;;31.87;59.33;100818.28;4939974;28;66043;-35
2022/04/15 04:02:55;;;;;;;15.13;14.07;;;;;;;31.91;59.52;100816.81;4940018;28;69968;-36
2022/04/15 04:05:25;;;;;;;14.90;13.70;;;;;;;31.94;59.72;100805.50;4940018;28;65568;-37
2022/04/15 04:08:15;;;;;;;14.50;13.43;;;;;;;31.97;59.44;100807.75;4939326;28;69336;-35
2022/04/15 04:10:46;;;;;;;15.57;14.30;;;;;;;31.92;59.26;100783.19;4927535;28;65320;-36
2022/04/15 04:13:16;;;;;;;15.18;14.20;;;;;;;32.02;59.24;100794.31;4972793;28;70290;-36
2022/04/15 04:15:47;;;;;;;14.30;13.35;;;;;;;32.07;59.13;100795.50;4992764;28;64975;-35
2022/04/15 04:18:20;;;;;;;14.32;13.30;;;;;;;32.10;59.07;100787.75;4999588;28;70415;-36
2022/04/15 04:20:51;;;;;;;14.77;13.50;;;;;;;32.13;59.10;100781.03;4997047;28;65754;-36
2022/04/15 04:23:22;;;;;;;14.13;13.23;;;;;;;32.11;59.06;100775.81;4979747;28;70261;-36
2022/04/15 04:25:53;;;;;;;15.68;14.57;;;;;;;32.20;58.83;100781.75;4963860;28;66095;-36
2022/04/15 04:28:24;;;;;;;14.20;13.07;;;;;;;32.20;58.87;100770.88;4963599;28;69862;-36
2022/04/15 04:30:55;;;;;;;13.77;12.95;;;;;;;32.23;58.68;100757.72;4979928;28;66116;-35
2022/04/15 04:33:26;;;;;;;13.63;12.82;;;;;;;32.00;58.38;100712.31;4977841;28;70157;-35
2022/04/15 04:35:56;;;;;;;13.63;12.60;;;;;;;32.27;58.61;100739.88;4979705;28;65402;-35
2022/04/15 04:38:27;;;;;;;14.55;13.57;;;;;;;32.32;58.60;100752.75;4979774;28;68625;-36
2022/04/15 04:40:58;;;;;;;13.77;12.82;;;;;;;32.36;58.48;100740.38;4996707;28;65206;-35
2022/04/15 04:43:30;;;;;;;13.90;12.88;;;;;;;32.38;58.52;100729.28;5051913;28;69710;-37
2022/04/15 04:46:01;;;;;;;14.15;13.27;;;;;;;32.42;58.26;100731.28;5036971;28;66117;-36
2022/04/15 04:48:32;;;;;;;14.07;13.23;;;;;;;32.33;58.44;100721.00;5035819;28;70257;-36
2022/04/15 04:51:03;;;;;;;13.60;12.82;;;;;;;32.46;58.22;100732.50;5038640;28;66509;-36
2022/04/15 04:53:34;;;;;;;13.77;12.77;;;;;;;32.45;58.18;100719.94;5037611;28;69189;-37
2022/04/15 04:56:04;;;;;;;12.73;11.93;;;;;;;32.52;58.14;100725.31;5045650;28;66288;-36
2022/04/15 04:58:35;;;;;;;14.25;13.30;;;;;;;32.52;58.04;100719.88;5048880;28;69431;-37
2022/04/15 05:01:06;;;;;;;12.70;12.00;;;;;;;32.56;58.18;100720.22;5040427;28;66336;-36
2022/04/15 05:03:36;;;;;;;14.23;13.00;;;;;;;32.56;58.03;100714.81;5045130;28;69468;-36
2022/04/15 05:06:07;;;;;;;13.35;12.43;;;;;;;32.58;58.34;100704.53;5045869;28;65597;-35
2022/04/15 05:08:38;;;;;;;15.48;14.27;;;;;;;32.48;58.20;100675.25;5042364;28;70369;-36
2022/04/15 05:11:12;;;;;;;15.07;13.95;;;;;;;32.56;57.59;100684.94;5043471;28;66542;-36
2022/04/15 05:13:43;;;;;;;14.57;13.68;;;;;;;32.62;57.91;100681.25;5042051;28;69584;-36
2022/04/15 05:16:15;;;;;;;15.45;14.45;;;;;;;32.62;57.99;100679.38;5018345;28;65722;-36
2022/04/15 05:18:46;;;;;;;14.35;13.43;;;;;;;32.65;58.02;100678.06;5038330;28;70121;-36
2022/04/15 05:21:17;;;;;;;14.65;13.68;;;;;;;32.65;57.97;100673.50;5029086;28;65933;-36
2022/04/15 05:23:48;;;;;;;14.38;13.38;;;;;;;32.68;57.90;100669.44;5037012;28;69963;-37
2022/04/15 05:26:20;;;;;;;16.48;15.10;;;;;;;32.71;58.04;100669.00;5041767;28;65908;-37
2022/04/15 05:28:50;;;;;;;14.73;13.70;;;;;;;32.67;58.00;100646.06;5031507;28;69627;-37
2022/04/15 05:31:34;;;;;;;14.77;13.93;;;;;;;32.74;57.70;100646.78;5057075;28;67072;-36
2022/04/15 05:34:06;;;;;;;14.23;13.23;;;;;;;32.77;57.81;100637.34;5056722;28;69614;-37
2022/04/15 05:36:37;;;;;;;14.93;13.93;;;;;;;32.76;57.77;100633.78;5055144;28;65706;-36
2022/04/15 05:39:08;;;;;;;15.13;14.23;;;;;;;32.79;57.69;100630.59;5053073;28;70476;-35
2022/04/15 05:41:40;;;;;;;;;;;;;;;32.48;58.36;100615.50;5038238;28;66721;-36
2022/04/15 05:44:14;;;;;;;15.50;14.55;;;;;;;32.77;57.81;100619.16;5038823;28;70102;-37
2022/04/15 05:46:47;;;;;;;16.42;15.23;;;;;;;32.84;57.76;100614.38;5042287;28;66135;-37
2022/04/15 05:49:19;;;;;;;16.00;15.00;;;;;;;32.82;57.92;100605.66;5040643;28;70061;-37
2022/04/15 05:51:50;;;;;;;;;;;;;;;32.52;58.56;100611.28;5094571;27;66341;-36
2022/04/15 05:54:21;;;;;;;15.88;14.35;;;;;;;32.83;57.96;100607.31;5116987;27;70313;-37
2022/04/15 05:56:53;;;;;;;15.15;14.07;;;;;;;32.77;58.04;100586.53;5100290;27;66510;-37
2022/04/15 05:59:26;;;;;;;14.90;13.90;;;;;;;32.88;57.60;100599.28;5100930;27;69521;-37
2022/04/15 06:01:57;;;;;;;14.63;13.73;;;;;;;32.85;57.70;100588.88;5084447;27;66450;-36
2022/04/15 06:04:28;;;;;;;15.13;14.23;;;;;;;32.88;57.77;100582.16;5079379;27;70267;-36
2022/04/15 06:06:59;;;;;;;16.43;15.30;;;;;;;32.88;57.78;100577.53;5080852;27;65001;-36
2022/04/15 06:09:31;;;;;;;15.57;14.68;;;;;;;32.82;57.92;100562.22;5098084;27;70055;-36
2022/04/15 06:12:11;;;;;;;14.95;14.15;;;;;;;32.91;57.65;100560.75;5092135;27;65956;-38
2022/04/15 06:14:42;;;;;;;15.00;14.00;;;;;;;32.87;57.78;100550.59;5086550;27;69874;-36
2022/04/15 06:17:15;;;;;;;15.20;14.25;;;;;;;32.93;57.70;100558.63;5092910;27;65997;-36
2022/04/15 06:19:49;;;;;;;15.30;14.27;;;;;;;32.98;57.67;100543.47;5080364;27;69019;-36
2022/04/15 06:22:20;;;;;;;15.00;14.13;;;;;;;33.00;57.50;100541.38;5090756;27;65612;-36
2022/04/15 06:24:53;;;;;;;14.90;14.10;;;;;;;33.03;57.44;100530.03;5072034;27;70515;-36
2022/04/15 06:27:26;;;;;;;14.68;13.77;;;;;;;33.06;57.12;100527.63;5104184;27;66568;-37
2022/04/15 06:29:59;;;;;;;14.65;13.85;;;;;;;33.08;57.20;100516.53;5100189;27;69995;-35
2022/04/15 06:32:32;;;;;;;16.00;14.77;;;;;;;33.05;57.04;100506.16;5097030;27;66077;-36
2022/04/15 06:35:06;;;;;;;14.90;13.60;;;;;;;33.11;57.18;100516.03;5099686;27;70557;-36
2022/04/15 06:37:40;;;;;;;15.50;14.60;;;;;;;32.92;57.27;100480.88;5100326;27;65734;-36
2022/04/15 06:40:13;;;;;;;15.10;14.13;;;;;;;33.14;56.91;100515.53;5084477;27;70253;-36
2022/04/15 06:42:44;;;;;;;15.63;14.50;;;;;;;33.17;56.97;100509.63;5092030;27;66341;-36
2022/04/15 06:45:15;;;;;;;14.88;14.02;;;;;;;33.17;57.07;100508.81;5083672;27;69621;-35
2022/04/15 06:47:47;;;;;;;15.25;14.23;;;;;;;33.18;57.11;100496.84;5082925;27;65272;-36
2022/04/15 06:50:20;;;;;;;15.70;14.60;;;;;;;33.19;57.11;100479.50;5093277;27;70690;-36
2022/04/15 06:52:52;;;;;;;15.38;14.40;;;;;;;33.20;56.88;100465.63;5092954;27;66162;-37
2022/04/15 06:55:23;;;;;;;15.30;14.43;;;;;;;33.21;56.77;100455.59;5080714;27;70500;-36
2022/04/15 06:57:54;;;;;;;15.03;13.93;;;;;;;33.23;56.98;100448.84;5091647;27;68018;-35
2022/04/15 07:00:27;;;;;;;15.32;14.23;;;;;;;33.29;56.63;100447.88;5103690;27;70452;-36
2022/04/15 07:02:58;;;;;;;14.98;13.95;;;;;;;33.32;56.75;100446.53;5085914;27;65349;-35
2022/04/15 07:05:29;;;;;;;14.93;14.03;;;;;;;33.33;56.68;100438.13;5082301;27;71447;-36
2022/04/15 07:08:10;;;;;;;15.18;14.18;;;;;;;33.44;56.56;100438.31;5083987;27;66114;-36
2022/04/15 07:10:41;;;;;;;14.63;13.93;;;;;;;33.48;56.61;100428.56;5094849;27;69807;-36
2022/04/15 07:13:12;;;;;;;15.07;13.98;;;;;;;33.46;56.27;100414.38;5087316;27;65256;-36
2022/04/15 07:15:43;;;;;;;14.63;13.73;;;;;;;33.52;56.18;100410.69;5083335;27;70527;-36
2022/04/15 07:18:14;;;;;;;14.75;13.85;;;;;;;33.53;56.33;100398.75;5082356;27;65389;-36
2022/04/15 07:20:46;;;;;;;15.82;14.55;;;;;;;33.58;56.18;100401.56;5091617;27;69753;-36
2022/04/15 07:23:17;;;;;;;15.98;15.05;;;;;;;33.59;56.05;100398.56;5081234;27;65962;-36
2022/04/15 07:25:49;;;;;;;18.63;17.27;;;;;;;33.63;55.97;100393.47;5081389;27;69122;-36
2022/04/15 07:28:21;;;;;;;19.75;18.05;;;;;;;33.59;56.19;100382.25;5097548;27;65619;-36
2022/04/15 07:30:55;;;;;;;20.75;18.73;;;;;;;33.71;56.09;100401.22;5083179;27;70070;-36
2022/04/15 07:33:27;;;;;;;;;;;;;;;33.43;56.52;100398.56;5099627;27;65969;-35
2022/04/15 07:35:59;;;;;;;26.42;23.80;;;;;;;33.72;55.89;100386.53;5089333;27;70250;-36
2022/04/15 07:38:34;;;;;;;38.80;32.75;;;;;;;33.76;56.08;100387.66;5086552;27;66097;-35
2022/04/15 07:41:06;;;;;;;50.25;41.45;;;;;;;33.77;55.97;100377.63;5085356;27;69454;-36
2022/04/15 07:43:40;;;;;;;56.28;45.92;;;;;;;33.80;55.98;100372.47;5098723;27;66296;-36
2022/04/15 07:46:13;;;;;;;65.82;48.90;;;;;;;33.79;55.78;100367.28;5088767;27;70595;-36
2022/04/15 07:48:45;;;;;;;64.72;49.22;;;;;;;33.83;55.98;100356.75;5082781;27;65817;-35
2022/04/15 07:51:18;;;;;;;63.50;50.55;;;;;;;33.80;55.99;100348.00;5084139;27;70101;-36
2022/04/15 07:53:50;;;;;;;64.40;49.95;;;;;;;33.83;56.02;100348.59;5083452;27;65676;-35
2022/04/15 07:56:25;;;;;;;67.10;51.90;;;;;;;33.84;55.99;100352.94;5087332;27;69878;-36
2022/04/15 07:58:57;;;;;;;65.95;51.78;;;;;;;33.81;56.03;100338.75;5091663;27;66528;-36
2022/04/15 08:01:32;;;;;;;64.97;50.90;;;;;;;33.85;55.80;100346.41;5102054;27;69852;-36
2022/04/15 08:04:05;;;;;;;67.72;48.70;;;;;;;33.79;56.21;100332.75;5073374;27;65354;-37
2022/04/15 08:06:37;;;;;;;57.83;45.88;;;;;;;33.85;56.31;100343.69;5094344;27;69006;-36
2022/04/15 08:09:12;;;;;;;64.38;47.90;;;;;;;33.82;56.35;100342.28;5084988;27;65345;-37
2022/04/15 08:11:43;;;;;;;62.97;48.00;;;;;;;33.83;56.21;100354.03;5081127;27;69958;-37
2022/04/15 08:14:21;;;;;;;59.33;45.75;;;;;;;33.84;56.21;100363.81;5085783;27;66639;-35
2022/04/15 08:16:55;;;;;;;57.95;44.95;;;;;;;33.87;56.38;100385.88;5097091;27;70045;-37
2022/04/15 08:19:26;;;;;;;54.88;45.90;;;;;;;33.84;56.46;100394.56;5088429;27;66715;-36
2022/04/15 08:22:02;;;;;;;57.38;44.28;;;;;;;33.86;56.44;100399.75;5097583;27;69684;-37
2022/04/15 08:24:39;;;;;;;53.45;43.35;;;;;;;33.89;56.54;100402.78;5093947;27;66566;-35
2022/04/15 08:27:10;;;;;;;52.67;41.72;;;;;;;33.87;56.42;100395.97;5082204;27;70035;-35
2022/04/15 08:29:45;;;;;;;50.55;40.08;;;;;;;33.83;56.73;100383.94;5096912;27;66131;-35
2022/04/15 08:32:17;;;;;;;46.78;39.42;;;;;;;33.87;56.75;100388.63;5087667;27;70014;-36
2022/04/15 08:34:48;;;;;;;48.97;38.88;;;;;;;33.88;56.74;100368.50;5092079;27;66701;-35
2022/04/15 08:37:20;;;;;;;44.20;37.38;;;;;;;33.87;56.77;100358.69;5089804;27;70087;-37
2022/04/15 08:39:51;;;;;;;42.95;37.17;;;;;;;33.88;56.87;100354.06;5083977;27;66359;-36
2022/04/15 08:42:23;;;;;;;43.92;36.83;;;;;;;33.88;56.58;100340.47;5081663;27;68893;-35
2022/04/15 08:44:56;;;;;;;45.08;37.53;;;;;;;33.91;56.63;100345.41;5097478;27;66211;-36
2022/04/15 08:47:28;;;;;;;41.40;36.28;;;;;;;33.92;56.55;100360.66;5100466;27;69738;-36
2022/04/15 08:50:00;;;;;;;39.78;35.38;;;;;;;33.91;56.76;100368.00;5094850;27;65980;-36
2022/04/15 08:52:33;;;;;;;38.95;34.72;;;;;;;33.93;56.74;100373.16;5064294;27;70399;-36
2022/04/15 08:55:05;;;;;;;40.63;35.53;;;;;;;33.94;56.68;100383.81;5083696;27;65097;-36
2022/04/15 08:57:39;;;;;;;38.70;33.88;;;;;;;33.95;56.71;100376.47;5080480;27;43560;-36
2022/04/15 09:00:10;;;;;;;37.20;32.42;;;;;;;33.93;56.74;100375.91;5096436;27;65725;-36
2022/04/15 09:02:42;;;;;;;36.92;31.55;;;;;;;33.92;57.16;100374.25;5081683;27;70034;-35
2022/04/15 09:05:17;;;;;;;37.30;31.75;;;;;;;33.85;56.89;100346.41;5083941;27;65929;-36
2022/04/15 09:07:49;;;;;;;37.67;30.13;;;;;;;33.92;57.05;100358.75;5099290;27;69740;-35
2022/04/15 09:10:21;;;;;;;35.47;30.88;;;;;;;33.83;56.89;100365.72;5088678;27;66197;-37
2022/04/15 09:12:53;;;;;;;35.00;30.83;;;;;;;33.94;56.92;100402.03;5100026;27;70534;-36
2022/04/15 09:15:24;;;;;;;;;;;;;;;33.63;57.66;100412.53;5081506;27;65946;-37
2022/04/15 09:17:59;;;;;;;35.38;31.40;;;;;;;33.91;57.03;100421.59;5081483;27;69193;-36
2022/04/15 09:20:33;;;;;;;36.55;30.17;;;;;;;33.92;57.18;100401.47;5091131;27;65656;-36
2022/04/15 09:23:10;;;;;;;43.47;30.27;;;;;;;33.90;56.77;100400.88;5076325;27;69923;-36
2022/04/15 09:25:52;;;;;;;;;;;;;;;33.60;57.95;100413.03;5084575;27;66051;-37
2022/04/15 09:28:37;;;;;;;30.88;27.70;;;;;;;33.54;57.25;100362.31;5081307;27;70266;-35
2022/04/15 09:31:48;;;;;;;32.13;28.65;;;;;;;33.75;57.42;100420.56;5096167;27;66552;-37
2022/04/15 09:34:58;;;;;;;32.45;28.98;;;;;;;33.78;57.36;100414.63;5103817;27;69406;-36
2022/04/15 09:38:03;;;;;;;34.88;26.98;;;;;;;33.76;57.39;100409.41;5008387;27;65218;-36
2022/04/15 09:40:59;;;;;;;30.58;26.45;;;;;;;33.73;57.46;100404.47;5083547;27;69252;-36
2022/04/15 09:44:02;;;;;;;28.10;25.25;;;;;;;33.68;57.75;100404.41;5082172;27;66271;-36
2022/04/15 09:46:52;;;;;;;32.80;26.38;;;;;;;33.78;57.84;100418.16;5095372;27;70462;-36
2022/04/15 09:50:08;;;;;;;33.20;26.58;;;;;;;33.75;58.02;100429.53;5090874;27;66250;-35
2022/04/15 09:53:42;;;;;;;27.27;24.35;;;;;;;33.59;58.11;100435.84;5092535;27;70445;-37
2022/04/15 09:56:53;;;;;;;28.23;25.23;;;;;;;33.65;58.14;100418.50;5035070;28;66077;-38
2022/04/15 09:59:44;;;;;;;26.30;23.77;;;;;;;33.69;58.27;100429.72;5071518;27;70194;-36
2022/04/15 10:02:35;;;;;;;28.20;23.67;;;;;;;33.72;58.04;100427.31;5080439;27;65684;-36
2022/04/15 10:05:25;;;;;;;25.75;23.42;;;;;;;33.70;58.35;100429.47;5095708;27;69730;-36
2022/04/15 10:07:57;;;;;;;25.45;22.88;;;;;;;33.65;58.32;100437.53;5098671;27;65134;-36
2022/04/15 10:10:33;;;;;;;26.63;23.85;;;;;;;33.62;58.44;100435.31;5091408;27;70255;-36
2022/04/15 10:13:05;;;;;;;25.15;22.58;;;;;;;33.52;58.75;100419.69;5093512;27;66124;-36
2022/04/15 10:15:40;;;;;;;27.92;23.05;;;;;;;33.52;58.51;100433.28;5094810;27;69434;-41
2022/04/15 10:18:13;;;;;;;29.17;21.92;;;;;;;33.58;58.92;100445.06;5097402;27;66095;-36
2022/04/15 10:20:44;;;;;;;25.38;22.92;;;;;;;33.58;58.79;100455.94;5115522;27;70526;-44
2022/04/15 10:23:17;;;;;;;24.10;21.80;;;;;;;33.50;58.79;100448.19;5104371;27;67382;-36
2022/04/15 10:25:50;;;;;;;25.58;21.42;;;;;;;33.57;59.01;100467.88;5079101;27;69894;-36
2022/04/15 10:28:42;;;;;;;24.60;22.00;;;;;;;33.41;59.07;100472.25;5080018;27;66002;-37
2022/04/15 10:31:16;;;;;;;23.80;21.40;;;;;;;33.16;59.08;100421.00;5080322;27;70432;-37
2022/04/15 10:33:51;;;;;;;22.98;20.55;;;;;;;33.50;58.82;100465.31;5095043;27;65904;-36
2022/04/15 10:36:24;;;;;;;23.50;21.15;;;;;;;32.92;59.20;100372.22;5082271;27;69784;-36
2022/04/15 10:39:06;;;;;;;22.02;20.05;;;;;;;33.44;59.42;100460.06;5099416;27;65411;-36
2022/04/15 10:41:53;;;;;;;22.58;20.25;;;;;;;33.44;59.58;100457.34;5098083;27;69172;-35
2022/04/15 10:44:40;;;;;;;25.08;20.80;;;;;;;33.44;59.98;100460.06;5085704;27;66160;-38
2022/04/15 10:47:26;;;;;;;21.25;19.35;;;;;;;33.48;59.58;100458.47;5092989;27;70067;-36
2022/04/15 10:50:07;;;;;;;22.42;19.83;;;;;;;33.49;60.49;100468.25;5078036;27;66520;-40
2022/04/15 10:52:39;;;;;;;21.33;17.98;;;;;;;33.50;60.54;100465.31;5079213;27;69318;-36
2022/04/15 10:55:12;;;;;;;20.10;18.13;;;;;;;33.53;60.99;100470.28;5078660;27;65129;-36
2022/04/15 10:57:48;;;;;;;19.77;17.70;;;;;;;33.43;60.93;100447.50;5070586;27;69862;-36
2022/04/15 11:03:27;;;;;;;18.20;16.55;;;;;;;33.42;62.56;100465.72;5086337;27;70214;-35
2022/04/15 11:06:06;;;;;;;18.38;16.58;;;;;;;33.48;62.77;100472.06;5088131;27;66822;-36
2022/04/15 11:09:15;;;;;;;18.67;17.15;;;;;;;33.40;62.67;100475.19;5095525;27;69419;-35
2022/04/15 11:11:51;;;;;;;20.77;17.23;;;;;;;33.52;62.91;100478.69;5059078;27;66743;-36
2022/04/15 11:14:37;;;;;;;20.23;17.63;;;;;;;33.49;62.93;100485.44;5090885;27;69383;-36
2022/04/15 11:17:09;;;;;;;20.58;18.17;;;;;;;33.54;62.52;100498.28;5085677;27;66580;-34
2022/04/15 11:19:41;;;;;;;20.77;18.75;;;;;;;33.49;63.18;100492.75;5092187;27;70347;-36
2022/04/15 11:22:13;;;;;;;20.55;18.65;;;;;;;33.50;63.21;100497.13;5093745;27;65990;-35
2022/04/15 11:24:44;;;;;;;19.30;17.52;;;;;;;33.50;63.15;100497.94;5090593;27;70114;-36
2022/04/15 11:27:19;;;;;;;20.75;18.65;;;;;;;33.49;63.30;100503.63;5091324;27;65298;-41
2022/04/15 11:29:52;;;;;;;21.80;19.67;;;;;;;33.43;63.22;100496.47;5089074;27;69623;-37
2022/04/15 11:32:25;;;;;;;23.35;20.90;;;;;;;33.48;63.59;100493.81;5089157;27;65650;-37
2022/04/15 11:34:56;;;;;;;21.55;19.55;;;;;;;33.44;63.41;100493.50;5081794;27;70142;-35
2022/04/15 11:37:28;;;;;;;22.40;20.03;;;;;;;33.42;63.64;100500.25;5085426;27;66293;-36
2022/04/15 11:39:59;;;;;;;23.00;19.55;;;;;;;33.44;63.50;100509.00;5091449;27;69438;-36
2022/04/15 11:42:32;;;;;;;21.55;19.55;;;;;;;33.38;63.61;100510.81;5102769;27;66256;-37
2022/04/15 11:45:12;;;;;;;25.58;20.05;;;;;;;33.45;63.66;100526.94;5089654;27;70336;-38
2022/04/15 11:47:43;;;;;;;21.75;19.73;;;;;;;33.43;63.42;100529.91;5090802;27;65178;-36
2022/04/15 11:50:16;;;;;;;23.13;20.75;;;;;;;33.42;63.50;100536.41;5088700;27;69624;-36
2022/04/15 11:52:48;;;;;;;42.17;25.63;;;;;;;33.11;65.69;100532.34;5085828;27;65417;-36
2022/04/15 11:55:20;;;;;;;36.43;27.00;;;;;;;32.82;66.45;100528.75;5082009;27;70219;-37
2022/04/15 11:57:52;;;;;;;35.40;30.08;;;;;;;32.59;66.34;100524.25;5091888;27;65232;-36
2022/04/15 12:00:26;;;;;;;38.30;30.25;;;;;;;32.54;66.80;100543.13;5087384;27;70382;-36
2022/04/15 12:03:03;;;;;;;39.53;30.35;;;;;;;32.40;66.32;100532.53;5091329;27;66567;-35
2022/04/15 12:05:36;;;;;;;35.42;27.92;;;;;;;32.34;65.96;100543.50;5088119;27;70482;-37
2022/04/15 12:08:10;;;;;;;;;;;;;;;31.82;66.20;100544.22;5088594;27;66614;-36
2022/04/15 12:10:44;;;;;;;27.38;24.20;;;;;;;32.15;65.41;100578.09;5104033;27;70220;-41